createdAt,value
2023-03-03T00:02:13.925Z,3.21
2023-03-03T00:04:42.162Z,3.16
2023-03-03T00:07:11.669Z,3.19
2023-03-03T00:09:39.947Z,3.17
2023-03-03T00:12:25.324Z,3.14
2023-03-03T00:14:53.948Z,3.05
2023-03-03T00:17:24.392Z,3.05
2023-03-03T00:19:52.907Z,3.00
2023-03-03T00:22:30.419Z,2.99
2023-03-03T00:25:00.433Z,3.00
2023-03-03T00:27:28.712Z,2.96
2023-03-03T00:29:58.424Z,3.00
2023-03-03T00:32:29.974Z,3.07
2023-03-03T00:35:03.079Z,3.08
2023-03-03T00:37:33.069Z,3.12
2023-03-03T00:40:19.285Z,3.14
2023-03-03T00:42:49.544Z,3.15
2023-03-03T00:45:28.686Z,3.10
2023-03-03T00:47:57.241Z,3.21
2023-03-03T00:50:30.529Z,3.26
2023-03-03T00:53:03.414Z,3.23
2023-03-03T00:55:32.510Z,3.16
2023-03-03T00:58:00.686Z,3.16
2023-03-03T01:00:32.370Z,3.18
2023-03-03T01:03:04.716Z,3.16
2023-03-03T01:05:32.905Z,3.16
2023-03-03T01:08:01.597Z,3.14
2023-03-03T01:10:31.295Z,3.11
2023-03-03T01:13:00.111Z,3.09
2023-03-03T01:15:28.516Z,3.11
2023-03-03T01:17:56.946Z,3.16
2023-03-03T01:20:25.124Z,3.19
2023-03-03T01:22:53.303Z,3.28
2023-03-03T01:25:21.466Z,3.29
2023-03-03T01:27:49.585Z,3.21
2023-03-03T01:30:19.269Z,3.26
2023-03-03T01:32:47.436Z,3.26
2023-03-03T01:35:15.644Z,3.23
2023-03-03T01:37:43.721Z,3.20
2023-03-03T01:40:15.873Z,3.22
2023-03-03T01:42:44.032Z,3.25
2023-03-03T01:45:20.200Z,3.29
2023-03-03T01:47:57.474Z,3.21
2023-03-03T01:50:34.772Z,3.15
2023-03-03T01:53:04.380Z,3.16
2023-03-03T01:55:35.237Z,3.22
2023-03-03T01:58:09.267Z,3.30
2023-03-03T02:00:39.664Z,3.29
2023-03-03T02:03:08.015Z,3.23
2023-03-03T02:05:36.771Z,3.28
2023-03-03T02:08:05.516Z,3.31
2023-03-03T02:10:37.686Z,3.25
2023-03-03T02:13:05.783Z,3.21
2023-03-03T02:15:37.950Z,3.20
2023-03-03T02:18:07.757Z,3.20
2023-03-03T02:20:54.674Z,3.18
2023-03-03T02:23:30.110Z,3.15
2023-03-03T02:25:59.214Z,3.15
2023-03-03T02:28:31.491Z,3.20
2023-03-03T02:31:01.435Z,3.24
2023-03-03T02:33:30.124Z,3.25
2023-03-03T02:35:58.105Z,3.20
2023-03-03T02:38:31.360Z,3.16
2023-03-03T02:41:03.654Z,3.19
2023-03-03T02:43:54.843Z,3.24
2023-03-03T02:46:23.303Z,3.21
2023-03-03T02:48:51.500Z,3.20
2023-03-03T02:51:20.805Z,3.20
2023-03-03T02:53:48.873Z,3.18
2023-03-03T02:56:17.066Z,3.19
2023-03-03T02:58:45.740Z,3.29
2023-03-03T03:01:14.767Z,3.34
2023-03-03T03:03:43.500Z,3.32
2023-03-03T03:06:11.903Z,3.38
2023-03-03T03:08:40.690Z,3.36
2023-03-03T03:11:08.985Z,3.26
2023-03-03T03:13:36.935Z,3.21
2023-03-03T03:16:05.381Z,3.25
2023-03-03T03:18:33.617Z,3.30
2023-03-03T03:21:09.297Z,3.35
2023-03-03T03:23:37.731Z,3.38
2023-03-03T03:26:06.726Z,3.33
2023-03-03T03:28:35.572Z,3.32
2023-03-03T03:31:04.076Z,3.41
2023-03-03T03:33:32.178Z,3.44
2023-03-03T03:36:00.601Z,3.43
2023-03-03T03:38:29.919Z,3.42
2023-03-03T03:40:58.237Z,3.35
2023-03-03T03:43:27.052Z,3.32
2023-03-03T03:45:55.353Z,3.27
2023-03-03T03:48:23.731Z,3.19
2023-03-03T03:50:51.820Z,3.17
2023-03-03T03:53:20.450Z,3.12
2023-03-03T03:55:48.759Z,3.16
2023-03-03T03:58:18.239Z,3.16
2023-03-03T04:00:50.365Z,3.18
2023-03-03T04:03:18.951Z,3.23
2023-03-03T04:05:49.425Z,3.26
2023-03-03T04:08:17.439Z,3.23
2023-03-03T04:10:45.678Z,3.06
2023-03-03T04:13:13.955Z,3.04
2023-03-03T04:15:42.211Z,3.10
2023-03-03T04:18:10.718Z,3.15
2023-03-03T04:20:40.231Z,3.14
2023-03-03T04:23:08.514Z,3.12
2023-03-03T04:25:37.506Z,3.10
2023-03-03T04:28:12.104Z,3.12
2023-03-03T04:30:40.665Z,3.05
2023-03-03T04:33:09.230Z,3.00
2023-03-03T04:35:39.246Z,2.97
2023-03-03T04:38:07.794Z,2.96
2023-03-03T04:40:36.385Z,2.99
2023-03-03T04:43:04.827Z,3.03
2023-03-03T04:45:33.983Z,3.08
2023-03-03T04:48:02.447Z,3.16
2023-03-03T04:50:30.916Z,3.20
2023-03-03T04:52:59.627Z,3.20
2023-03-03T04:55:28.002Z,3.24
2023-03-03T04:57:56.630Z,3.27
2023-03-03T05:00:25.071Z,3.20
2023-03-03T05:02:53.445Z,3.22
2023-03-03T05:05:21.859Z,3.24
2023-03-03T05:07:50.020Z,3.23
2023-03-03T05:10:18.380Z,3.25
2023-03-03T05:12:46.779Z,3.25
2023-03-03T05:15:14.831Z,3.22
2023-03-03T05:17:42.906Z,3.15
2023-03-03T05:20:11.832Z,3.12
2023-03-03T05:22:39.971Z,3.20
2023-03-03T05:25:09.289Z,3.24
2023-03-03T05:27:37.362Z,3.25
2023-03-03T05:30:06.141Z,3.30
2023-03-03T05:32:34.446Z,3.34
2023-03-03T05:35:02.841Z,3.39
2023-03-03T05:37:30.756Z,3.45
2023-03-03T05:39:59.075Z,3.41
2023-03-03T05:42:27.219Z,3.35
2023-03-03T05:44:55.704Z,3.39
2023-03-03T05:47:23.932Z,3.40
2023-03-03T05:49:51.953Z,3.46
2023-03-03T05:52:20.203Z,3.49
2023-03-03T05:54:48.537Z,3.47
2023-03-03T05:57:16.586Z,3.49
2023-03-03T05:59:44.868Z,3.46
2023-03-03T06:02:13.019Z,3.48
2023-03-03T06:04:41.500Z,3.52
2023-03-03T06:07:09.570Z,3.58
2023-03-03T06:09:37.781Z,3.63
2023-03-03T06:12:06.093Z,3.68
2023-03-03T06:14:34.331Z,3.70
2023-03-03T06:17:02.255Z,3.68
2023-03-03T06:19:30.602Z,3.71
2023-03-03T06:22:00.795Z,3.75
2023-03-03T06:24:31.351Z,3.86
2023-03-03T06:27:00.041Z,3.88
2023-03-03T06:29:29.456Z,3.98
2023-03-03T06:31:58.814Z,4.09
2023-03-03T06:34:27.318Z,4.11
2023-03-03T06:36:55.489Z,4.13
2023-03-03T06:39:23.720Z,4.21
2023-03-03T06:41:52.937Z,4.27
2023-03-03T06:44:21.093Z,4.22
2023-03-03T06:46:49.734Z,4.25
2023-03-03T06:49:18.011Z,4.22
2023-03-03T06:51:46.770Z,4.27
2023-03-03T06:54:16.566Z,4.41
2023-03-03T06:56:45.632Z,4.39
2023-03-03T06:59:18.715Z,4.44
2023-03-03T07:01:48.001Z,4.52
2023-03-03T07:04:31.204Z,4.57
2023-03-03T07:07:06.151Z,4.66
2023-03-03T07:09:34.266Z,4.72
2023-03-03T07:12:07.136Z,4.78
2023-03-03T07:14:36.261Z,4.89
2023-03-03T07:17:05.274Z,5.02
2023-03-03T07:19:34.808Z,5.10
2023-03-03T07:22:14.193Z,5.20
2023-03-03T07:24:43.583Z,5.30
2023-03-03T07:27:25.871Z,5.36
2023-03-03T07:29:55.403Z,5.46
2023-03-03T07:32:28.043Z,5.49
2023-03-03T07:34:57.002Z,5.61
2023-03-03T07:37:25.842Z,5.66
2023-03-03T07:39:54.323Z,5.74
2023-03-03T07:42:39.848Z,5.82
2023-03-03T07:45:23.902Z,5.85
2023-03-03T07:47:51.967Z,5.93
2023-03-03T07:50:21.986Z,5.99
2023-03-03T07:52:57.628Z,6.02
2023-03-03T07:55:30.925Z,6.00
2023-03-03T07:58:05.746Z,6.05
2023-03-03T08:00:57.011Z,6.11
2023-03-03T08:03:25.533Z,6.23
2023-03-03T08:05:53.445Z,6.33
2023-03-03T08:08:30.383Z,6.26
2023-03-03T08:10:59.240Z,6.33
2023-03-03T08:13:33.201Z,6.44
2023-03-03T08:16:01.689Z,6.52
2023-03-03T08:18:36.307Z,6.58
2023-03-03T08:21:11.652Z,6.57
2023-03-03T08:23:40.030Z,6.62
2023-03-03T08:26:08.618Z,6.64
2023-03-03T08:28:36.544Z,6.64
2023-03-03T08:31:16.799Z,6.72
2023-03-03T08:33:49.022Z,6.82
2023-03-03T08:36:17.085Z,6.92
2023-03-03T08:38:45.977Z,6.95
2023-03-03T08:41:14.157Z,6.96
2023-03-03T08:43:43.497Z,7.02
2023-03-03T08:46:12.099Z,7.04
2023-03-03T08:48:40.136Z,7.16
2023-03-03T08:51:08.189Z,7.19
2023-03-03T08:53:38.479Z,7.30
2023-03-03T08:56:07.108Z,7.32
2023-03-03T08:58:36.289Z,7.41
2023-03-03T09:01:05.347Z,7.54
2023-03-03T09:03:33.514Z,7.58
2023-03-03T09:06:01.555Z,7.91
2023-03-03T09:08:29.641Z,8.35
2023-03-03T09:10:58.000Z,8.39
2023-03-03T09:13:27.472Z,8.45
2023-03-03T09:15:57.525Z,8.58
2023-03-03T09:18:30.106Z,8.90
2023-03-03T09:20:58.425Z,8.98
2023-03-03T09:23:31.804Z,8.77
2023-03-03T09:26:22.756Z,8.85
2023-03-03T09:28:50.717Z,9.28
2023-03-03T09:31:47.990Z,9.48
2023-03-03T09:34:21.981Z,9.75
2023-03-03T09:36:51.109Z,9.92
2023-03-03T09:39:20.962Z,10.12
2023-03-03T09:41:55.028Z,10.18
2023-03-03T09:44:38.402Z,10.16
2023-03-03T09:47:14.819Z,10.41
2023-03-03T09:49:47.974Z,10.62
2023-03-03T09:52:27.619Z,10.78
2023-03-03T09:54:55.782Z,10.78
2023-03-03T09:57:35.404Z,10.45
2023-03-03T10:00:38.823Z,10.02
2023-03-03T10:03:13.078Z,9.48
2023-03-03T10:05:50.038Z,9.41
2023-03-03T10:08:38.114Z,9.61
2023-03-03T10:11:25.390Z,9.62
2023-03-03T10:14:07.297Z,9.89
2023-03-03T10:16:56.595Z,10.04
2023-03-03T10:19:34.808Z,9.99
2023-03-03T10:22:05.812Z,9.93
2023-03-03T10:24:47.934Z,10.12
2023-03-03T10:27:16.191Z,10.15
2023-03-03T10:29:50.879Z,10.17
2023-03-03T10:32:28.407Z,10.10
2023-03-03T10:35:12.790Z,10.12
2023-03-03T10:37:40.948Z,10.14
2023-03-03T10:40:28.647Z,10.03
2023-03-03T10:43:08.701Z,9.82
2023-03-03T10:45:54.553Z,10.06
2023-03-03T10:48:26.285Z,10.40
2023-03-03T10:50:54.358Z,10.69
2023-03-03T10:53:34.641Z,10.49
2023-03-03T10:56:12.728Z,10.42
2023-03-03T10:58:58.838Z,10.52
2023-03-03T11:01:40.679Z,10.25
2023-03-03T11:04:24.256Z,9.97
2023-03-03T11:07:15.781Z,9.49
2023-03-03T11:09:59.686Z,9.26
2023-03-03T11:12:37.117Z,9.01
2023-03-03T11:15:15.029Z,8.93
2023-03-03T11:17:59.006Z,8.84
2023-03-03T11:20:30.531Z,8.86
2023-03-03T11:23:01.569Z,8.90
2023-03-03T11:25:34.359Z,8.89
2023-03-03T11:28:14.612Z,8.87
2023-03-03T11:30:48.806Z,8.88
2023-03-03T11:33:23.422Z,9.12
2023-03-03T11:35:51.428Z,9.09
2023-03-03T11:38:22.472Z,9.06
2023-03-03T11:41:09.390Z,9.08
2023-03-03T11:43:53.089Z,8.93
2023-03-03T11:46:32.611Z,9.06
2023-03-03T11:49:05.352Z,9.10
2023-03-03T11:51:53.637Z,9.41
2023-03-03T11:54:29.031Z,9.37
2023-03-03T11:57:12.297Z,9.18
2023-03-03T11:59:48.649Z,9.22
2023-03-03T12:02:33.618Z,9.17
2023-03-03T12:05:28.809Z,9.06
2023-03-03T12:08:00.101Z,9.05
2023-03-03T12:10:30.905Z,9.05
2023-03-03T12:13:35.186Z,9.02
2023-03-03T12:16:06.638Z,9.01
2023-03-03T12:18:46.853Z,9.09
2023-03-03T12:21:15.120Z,9.34
2023-03-03T12:24:05.572Z,9.28
2023-03-03T12:26:39.637Z,9.24
2023-03-03T12:29:14.052Z,9.26
2023-03-03T12:31:44.834Z,8.94
2023-03-03T12:34:12.777Z,8.88
2023-03-03T12:37:07.665Z,9.02
2023-03-03T12:39:50.483Z,9.04
2023-03-03T12:42:25.022Z,9.10
2023-03-03T12:44:59.361Z,9.21
2023-03-03T12:47:33.537Z,8.97
2023-03-03T12:50:07.440Z,8.83
2023-03-03T12:52:42.518Z,8.75
2023-03-03T12:55:22.608Z,8.73
2023-03-03T12:57:59.965Z,8.73
2023-03-03T13:00:32.146Z,8.46
2023-03-03T13:03:19.075Z,8.42
2023-03-03T13:05:54.818Z,8.32
2023-03-03T13:08:22.853Z,8.36
2023-03-03T13:11:11.093Z,8.34
2023-03-03T13:13:52.772Z,8.41
2023-03-03T13:16:38.944Z,8.42
2023-03-03T13:19:11.855Z,8.37
2023-03-03T13:21:55.004Z,8.32
2023-03-03T13:24:26.004Z,8.21
2023-03-03T13:26:57.196Z,8.18
2023-03-03T13:29:37.352Z,8.11
2023-03-03T13:32:28.466Z,8.10
2023-03-03T13:35:07.807Z,8.01
2023-03-03T13:37:39.252Z,7.96
2023-03-03T13:40:13.700Z,7.88
2023-03-03T13:42:52.089Z,7.89
2023-03-03T13:45:20.073Z,7.88
2023-03-03T13:47:48.133Z,7.79
2023-03-03T13:50:26.553Z,7.70
2023-03-03T13:52:57.592Z,7.56
2023-03-03T13:55:26.801Z,7.51
2023-03-03T13:58:04.182Z,7.37
2023-03-03T14:00:38.590Z,7.32
2023-03-03T14:03:32.283Z,7.32
2023-03-03T14:06:05.094Z,7.20
2023-03-03T14:08:33.139Z,7.10
2023-03-03T14:11:01.210Z,7.02
2023-03-03T14:13:41.064Z,6.97
2023-03-03T14:16:24.307Z,6.92
2023-03-03T14:18:57.774Z,6.85
2023-03-03T14:21:28.791Z,6.70
2023-03-03T14:24:05.009Z,6.55
2023-03-03T14:26:45.282Z,6.58
2023-03-03T14:29:29.949Z,6.70
2023-03-03T14:32:02.542Z,6.78
2023-03-03T14:34:30.778Z,6.84
2023-03-03T14:37:08.686Z,6.92
2023-03-03T14:39:39.214Z,6.91
2023-03-03T14:42:14.408Z,6.88
2023-03-03T14:44:45.805Z,6.82
2023-03-03T14:47:18.977Z,6.82
2023-03-03T14:49:47.178Z,6.77
2023-03-03T14:52:15.128Z,6.80
2023-03-03T14:54:46.347Z,6.76
2023-03-03T14:57:25.761Z,6.75
2023-03-03T14:59:56.982Z,6.69
2023-03-03T15:02:29.051Z,6.62
2023-03-03T15:05:26.542Z,6.63
2023-03-03T15:07:59.090Z,6.62
2023-03-03T15:10:28.531Z,6.63
2023-03-03T15:12:56.759Z,6.59
2023-03-03T15:15:25.852Z,6.56
2023-03-03T15:17:54.405Z,6.57
2023-03-03T15:20:37.813Z,6.54
2023-03-03T15:23:18.693Z,6.53
2023-03-03T15:26:09.878Z,6.42
2023-03-03T15:28:56.076Z,6.31
2023-03-03T15:31:39.505Z,6.19
2023-03-03T15:34:07.509Z,6.18
2023-03-03T15:36:58.892Z,6.07
2023-03-03T15:39:26.890Z,6.05
2023-03-03T15:42:06.248Z,5.98
2023-03-03T15:44:43.703Z,5.90
2023-03-03T15:47:30.664Z,5.80
2023-03-03T15:50:01.962Z,5.75
2023-03-03T15:52:32.095Z,5.76
2023-03-03T15:55:09.829Z,5.70
2023-03-03T15:57:41.456Z,5.65
2023-03-03T16:00:25.868Z,5.59
2023-03-03T16:02:59.261Z,5.50
2023-03-03T16:05:46.772Z,5.41
2023-03-03T16:08:33.390Z,5.34
2023-03-03T16:11:27.826Z,5.22
2023-03-03T16:14:13.522Z,5.08
2023-03-03T16:16:44.674Z,5.01
2023-03-03T16:19:31.269Z,4.98
2023-03-03T16:22:02.374Z,4.95
2023-03-03T16:24:43.968Z,4.90
2023-03-03T16:27:20.927Z,4.81
2023-03-03T16:30:02.634Z,4.73
2023-03-03T16:32:46.095Z,4.63
2023-03-03T16:35:21.815Z,4.60
2023-03-03T16:37:56.295Z,4.53
2023-03-03T16:40:27.642Z,4.46
2023-03-03T16:43:04.806Z,4.38
2023-03-03T16:45:36.938Z,4.37
2023-03-03T16:48:21.797Z,4.32
2023-03-03T16:50:49.748Z,4.30
2023-03-03T16:53:38.943Z,4.29
2023-03-03T16:56:14.168Z,4.25
2023-03-03T16:58:42.628Z,4.26
2023-03-03T17:01:20.113Z,4.29
2023-03-03T17:03:58.487Z,4.31
2023-03-03T17:06:45.451Z,4.26
2023-03-03T17:09:33.795Z,4.17
2023-03-03T17:12:26.242Z,4.13
2023-03-03T17:15:19.916Z,4.07
2023-03-03T17:18:06.728Z,4.09
2023-03-03T17:20:46.376Z,4.06
2023-03-03T17:23:14.362Z,4.03
2023-03-03T17:26:01.293Z,4.02
2023-03-03T17:28:32.612Z,3.95
2023-03-03T17:31:07.210Z,3.90
2023-03-03T17:33:44.113Z,3.90
2023-03-03T17:36:25.193Z,3.92
2023-03-03T17:39:22.556Z,3.93
2023-03-03T17:41:56.773Z,3.96
2023-03-03T17:44:24.716Z,4.00
2023-03-03T17:46:55.629Z,4.03
2023-03-03T17:49:32.463Z,3.97
2023-03-03T17:52:26.751Z,3.94
2023-03-03T17:55:07.284Z,3.92
2023-03-03T17:57:54.340Z,3.85
2023-03-03T18:00:42.686Z,3.79
2023-03-03T18:03:29.863Z,3.82
2023-03-03T18:06:00.676Z,3.85
2023-03-03T18:08:47.564Z,3.76
2023-03-03T18:11:21.271Z,3.67
2023-03-03T18:14:12.485Z,3.56
2023-03-03T18:16:43.940Z,3.48
2023-03-03T18:19:32.616Z,3.38
2023-03-03T18:22:11.642Z,3.31
2023-03-03T18:24:56.393Z,3.28
2023-03-03T18:27:24.407Z,3.24
2023-03-03T18:30:08.024Z,3.23
2023-03-03T18:32:55.108Z,3.27
2023-03-03T18:35:29.793Z,3.27
2023-03-03T18:37:57.924Z,3.25
2023-03-03T18:40:36.057Z,3.27
2023-03-03T18:43:24.387Z,3.36
2023-03-03T18:45:52.615Z,3.33
2023-03-03T18:48:40.530Z,3.39
2023-03-03T18:51:08.977Z,3.44
2023-03-03T18:53:37.375Z,3.42
2023-03-03T18:56:10.043Z,3.41
2023-03-03T18:58:42.656Z,3.34
2023-03-03T19:01:33.787Z,3.34
2023-03-03T19:04:21.681Z,3.33
2023-03-03T19:06:49.980Z,3.31
2023-03-03T19:09:19.511Z,3.29
2023-03-03T19:11:57.098Z,3.30
2023-03-03T19:14:29.853Z,3.28
2023-03-03T19:17:16.246Z,3.25
2023-03-03T19:20:02.460Z,3.10
2023-03-03T19:22:31.471Z,2.99
2023-03-03T19:25:22.850Z,2.91
2023-03-03T19:27:56.862Z,2.70
2023-03-03T19:30:43.913Z,2.73
2023-03-03T19:33:17.891Z,2.66
2023-03-03T19:35:48.969Z,2.63
2023-03-03T19:38:18.772Z,2.64
2023-03-03T19:40:46.927Z,2.68
2023-03-03T19:43:50.640Z,2.69
2023-03-03T19:46:18.769Z,2.74
2023-03-03T19:48:48.693Z,2.73
2023-03-03T19:51:28.393Z,2.65
2023-03-03T19:54:02.386Z,2.69
2023-03-03T19:56:40.657Z,2.69
2023-03-03T19:59:27.013Z,2.56
2023-03-03T20:02:18.833Z,2.56
2023-03-03T20:05:00.673Z,2.52
2023-03-03T20:07:49.838Z,2.44
2023-03-03T20:10:37.118Z,2.37
2023-03-03T20:13:22.497Z,2.30
2023-03-03T20:15:56.470Z,2.31
2023-03-03T20:18:27.251Z,2.31
2023-03-03T20:21:01.140Z,2.30
2023-03-03T20:23:38.390Z,2.29
2023-03-03T20:26:10.221Z,2.23
2023-03-03T20:28:57.223Z,2.21
2023-03-03T20:31:31.894Z,2.19
2023-03-03T20:33:59.811Z,2.19
2023-03-03T20:36:27.821Z,2.16
2023-03-03T20:39:08.029Z,2.15
2023-03-03T20:41:49.362Z,2.14
2023-03-03T20:44:17.311Z,2.12
2023-03-03T20:47:04.326Z,2.11
2023-03-03T20:49:47.768Z,2.05
2023-03-03T20:52:15.747Z,2.07
2023-03-03T20:54:46.913Z,1.96
2023-03-03T20:57:25.215Z,1.82
2023-03-03T20:59:56.439Z,1.73
2023-03-03T21:02:43.370Z,1.74
2023-03-03T21:05:16.162Z,1.65
2023-03-03T21:08:03.817Z,1.71
2023-03-03T21:10:35.568Z,1.72
2023-03-03T21:13:22.352Z,1.65
2023-03-03T21:16:02.215Z,1.60
2023-03-03T21:18:30.646Z,1.50
2023-03-03T21:20:58.662Z,1.49
2023-03-03T21:23:26.719Z,1.52
2023-03-03T21:25:55.987Z,1.55
2023-03-03T21:28:24.096Z,1.64
2023-03-03T21:31:04.249Z,1.71
2023-03-03T21:33:44.718Z,1.65
2023-03-03T21:36:14.641Z,1.54
2023-03-03T21:38:42.929Z,1.53
2023-03-03T21:41:11.095Z,1.55
2023-03-03T21:43:41.038Z,1.62
2023-03-03T21:46:09.253Z,1.65
2023-03-03T21:48:40.117Z,1.58
2023-03-03T21:51:08.609Z,1.55
2023-03-03T21:53:36.787Z,1.45
2023-03-03T21:56:05.382Z,1.44
2023-03-03T21:58:33.535Z,1.37
2023-03-03T22:01:01.748Z,1.30
2023-03-03T22:03:29.815Z,1.32
2023-03-03T22:05:58.164Z,1.30
2023-03-03T22:08:27.223Z,1.14
2023-03-03T22:10:56.450Z,1.07
2023-03-03T22:13:26.182Z,1.10
2023-03-03T22:15:55.373Z,1.10
2023-03-03T22:18:23.553Z,1.10
2023-03-03T22:20:51.874Z,1.18
2023-03-03T22:23:19.906Z,1.24
2023-03-03T22:25:48.181Z,1.29
2023-03-03T22:28:16.276Z,1.32
2023-03-03T22:30:44.452Z,1.30
2023-03-03T22:33:12.467Z,1.29
2023-03-03T22:35:40.540Z,1.24
2023-03-03T22:38:08.628Z,1.19
2023-03-03T22:40:36.634Z,1.20
2023-03-03T22:43:06.657Z,1.17
2023-03-03T22:45:34.972Z,1.13
2023-03-03T22:48:03.569Z,1.07
2023-03-03T22:50:31.685Z,1.05
2023-03-03T22:53:00.003Z,1.09
2023-03-03T22:55:29.469Z,1.13
2023-03-03T22:57:57.648Z,1.15
2023-03-03T23:00:25.731Z,1.22
2023-03-03T23:02:53.827Z,1.23
2023-03-03T23:05:22.180Z,1.21
2023-03-03T23:07:50.491Z,1.20
2023-03-03T23:10:19.141Z,1.14
2023-03-03T23:12:47.107Z,1.16
2023-03-03T23:15:15.175Z,1.09
2023-03-03T23:17:44.386Z,1.07
2023-03-03T23:20:14.145Z,1.03
2023-03-03T23:22:42.199Z,0.97
2023-03-03T23:25:10.452Z,0.91
2023-03-03T23:27:38.612Z,0.87
2023-03-03T23:30:07.851Z,0.81
2023-03-03T23:32:35.888Z,0.78
2023-03-03T23:35:04.115Z,0.80
2023-03-03T23:37:32.650Z,0.85
2023-03-03T23:40:00.616Z,0.82
2023-03-03T23:42:30.821Z,0.82
2023-03-03T23:44:58.720Z,0.83
2023-03-03T23:47:26.720Z,0.85
2023-03-03T23:49:54.860Z,0.85
2023-03-03T23:52:22.933Z,0.87
2023-03-03T23:54:51.554Z,0.90
2023-03-03T23:57:20.212Z,0.95
2023-03-03T23:59:48.232Z,0.92
